Time,TemperatureF,DewpointF,PressureIn,WindDirection,WindDirectionDegrees,WindSpeedMPH,WindSpeedGustMPH,Humidity,HourlyPrecipIn,Conditions,Clouds,dailyrainin,SoftwareType,DateUTC
2013-10-16 08:00:00,44.3,41.6,30.05,North,0,0.4,0.4,90,0.00,,,0.00,WUHU216HW,2013-10-16 13:00:00,
2013-10-16 08:01:00,44.3,41.6,30.06,NNW,338,1.6,1.6,90,0.00,,,0.00,WUHU216HW,2013-10-16 13:01:00,
2013-10-16 08:05:00,44.3,41.6,30.06,NNW,338,1.6,1.6,90,0.00,,,0.00,WUHU216HW,2013-10-16 13:05:00,
2013-10-16 08:10:00,44.3,41.6,30.06,NNW,338,1.6,1.6,90,0.00,,,0.00,WUHU216HW,2013-10-16 13:10:00,
2013-10-16 08:31:00,44.3,41.6,30.06,NNW,338,1.1,1.1,90,0.00,,,0.00,WUHU216HW,2013-10-16 13:31:00,
2013-10-16 08:36:00,44.3,41.6,30.06,NNW,338,1.1,1.1,90,0.00,,,0.00,WUHU216HW,2013-10-16 13:36:00,
2013-10-16 09:00:00,44.3,41.6,30.07,NNW,338,1.8,1.8,90,0.00,,,0.00,WUHU216HW,2013-10-16 14:00:00,
2013-10-16 09:05:00,44.3,41.6,30.07,NNW,338,1.8,1.8,90,0.00,,,0.00,WUHU216HW,2013-10-16 14:05:00,
2013-10-16 09:30:00,43.4,40.7,30.08,WNW,293,2.2,2.2,90,0.00,,,0.00,WUHU216HW,2013-10-16 14:30:00,
2013-10-16 09:35:00,43.4,40.7,30.08,WNW,293,2.2,2.2,90,0.00,,,0.00,WUHU216HW,2013-10-16 14:35:00,
2013-10-16 10:00:00,43.9,41.2,30.09,NW,315,1.1,1.1,90,0.00,,,0.00,WUHU216HW,2013-10-16 15:00:00,
2013-10-16 10:05:00,43.9,41.2,30.09,NW,315,1.1,1.1,90,0.00,,,0.00,WUHU216HW,2013-10-16 15:05:00,
2013-10-16 10:30:00,43.6,40.2,30.09,NW,315,1.8,1.8,88,0.00,,,0.00,WUHU216HW,2013-10-16 15:30:00,
2013-10-16 10:35:00,43.6,40.2,30.09,NW,315,1.8,1.8,88,0.00,,,0.00,WUHU216HW,2013-10-16 15:35:00,
2013-10-16 11:00:00,43.7,40.4,30.09,North,0,1.1,1.1,88,0.00,,,0.00,WUHU216HW,2013-10-16 16:00:00,
2013-10-16 11:05:00,43.7,40.4,30.09,North,0,1.1,1.1,88,0.00,,,0.00,WUHU216HW,2013-10-16 16:05:00,
2013-10-16 11:30:00,43.0,39.4,30.10,NNW,338,2.7,2.7,87,0.00,,,0.00,WUHU216HW,2013-10-16 16:30:00,
2013-10-16 11:35:00,43.0,39.4,30.10,NNW,338,2.7,2.7,87,0.00,,,0.00,WUHU216HW,2013-10-16 16:35:00,
2013-10-16 12:00:00,43.0,39.1,30.11,NNW,338,0.9,0.9,86,0.00,,,0.00,WUHU216HW,2013-10-16 17:00:00,
2013-10-16 12:05:00,43.0,39.1,30.11,NNW,338,0.9,0.9,86,0.00,,,0.00,WUHU216HW,2013-10-16 17:05:00,
2013-10-16 12:30:00,43.2,39.2,30.11,NNW,338,0.2,0.2,86,0.00,,,0.00,WUHU216HW,2013-10-16 17:30:00,
2013-10-16 12:35:00,43.2,39.2,30.11,NNW,338,0.2,0.2,86,0.00,,,0.00,WUHU216HW,2013-10-16 17:35:00,
2013-10-16 13:00:00,43.6,39.6,30.10,North,0,0.4,0.4,86,0.00,,,0.00,WUHU216HW,2013-10-16 18:00:00,
2013-10-16 13:05:00,43.6,39.6,30.10,North,0,0.4,0.4,86,0.00,,,0.00,WUHU216HW,2013-10-16 18:05:00,
2013-10-16 13:30:00,43.6,39.3,30.10,NNW,338,0.7,0.7,85,0.00,,,0.00,WUHU216HW,2013-10-16 18:30:00,
2013-10-16 13:35:00,43.6,39.3,30.10,NNW,338,0.7,0.7,85,0.00,,,0.00,WUHU216HW,2013-10-16 18:35:00,
2013-10-16 14:00:00,43.7,39.5,30.10,North,0,0.4,0.4,85,0.00,,,0.00,WUHU216HW,2013-10-16 19:00:00,
2013-10-16 14:05:00,43.7,39.5,30.10,North,0,0.4,0.4,85,0.00,,,0.00,WUHU216HW,2013-10-16 19:05:00,
2013-10-16 14:30:00,43.7,39.3,30.10,NNW,338,1.3,1.3,84,0.00,,,0.00,WUHU216HW,2013-10-16 19:30:00,
2013-10-16 14:35:00,43.7,39.3,30.10,NNW,338,1.3,1.3,84,0.00,,,0.00,WUHU216HW,2013-10-16 19:35:00,
2013-10-16 15:00:00,43.6,39.3,30.10,NNW,338,0.9,0.9,85,0.00,,,0.00,WUHU216HW,2013-10-16 20:00:00,
2013-10-16 15:05:00,43.6,39.3,30.10,NNW,338,0.9,0.9,85,0.00,,,0.00,WUHU216HW,2013-10-16 20:05:00,
2013-10-16 15:30:00,44.1,39.9,30.10,WNW,293,0.9,0.9,85,0.00,,,0.00,WUHU216HW,2013-10-16 20:30:00,
2013-10-16 15:35:00,44.1,39.9,30.10,WNW,293,0.9,0.9,85,0.00,,,0.00,WUHU216HW,2013-10-16 20:35:00,
2013-10-16 16:00:00,44.6,40.4,30.11,WSW,248,0.7,0.7,85,0.00,,,0.00,WUHU216HW,2013-10-16 21:00:00,
2013-10-16 16:05:00,44.6,40.4,30.11,WSW,248,0.7,0.7,85,0.00,,,0.00,WUHU216HW,2013-10-16 21:05:00,
2013-10-16 16:10:00,44.6,40.4,30.11,WSW,248,0.7,0.7,85,0.00,,,0.00,WUHU216HW,2013-10-16 21:10:00,
2013-10-16 16:30:00,44.5,40.0,30.10,NW,315,0.4,0.4,84,0.00,,,0.00,WUHU216HW,2013-10-16 21:30:00,
2013-10-16 16:35:00,44.5,40.0,30.10,NW,315,0.4,0.4,84,0.00,,,0.00,WUHU216HW,2013-10-16 21:35:00,
2013-10-16 17:00:00,44.3,39.4,30.11,NW,315,0.0,0.0,83,0.00,,,0.00,WUHU216HW,2013-10-16 22:00:00,
2013-10-16 17:05:00,44.3,39.4,30.11,NW,315,0.0,0.0,83,0.00,,,0.00,WUHU216HW,2013-10-16 22:05:00,
2013-10-16 17:10:00,44.3,39.4,30.11,NW,315,0.0,0.0,83,0.00,,,0.00,WUHU216HW,2013-10-16 22:10:00,
2013-10-16 17:30:00,44.1,39.0,30.12,NNW,338,0.0,0.0,82,0.00,,,0.00,WUHU216HW,2013-10-16 22:30:00,
2013-10-16 17:35:00,44.1,39.0,30.12,NNW,338,0.0,0.0,82,0.00,,,0.00,WUHU216HW,2013-10-16 22:35:00,
2013-10-16 18:00:00,43.7,38.6,30.12,SW,225,0.0,0.0,82,0.00,,,0.00,WUHU216HW,2013-10-16 23:00:00,
2013-10-16 18:05:00,43.7,38.6,30.12,WSW,248,0.0,0.0,82,0.00,,,0.00,WUHU216HW,2013-10-16 23:05:00,
2013-10-16 18:10:00,43.7,38.6,30.12,WSW,248,0.0,0.0,82,0.00,,,0.00,WUHU216HW,2013-10-16 23:10:00,
2013-10-16 18:30:00,43.6,38.4,30.13,West,270,0.0,0.0,82,0.00,,,0.00,WUHU216HW,2013-10-16 23:30:00,
2013-10-16 18:35:00,43.6,38.4,30.13,West,270,0.0,0.0,82,0.00,,,0.00,WUHU216HW,2013-10-16 23:35:00,
2013-10-16 19:00:00,42.8,37.4,30.13,West,270,0.0,0.0,81,0.00,,,0.00,WUHU216HW,2013-10-17 00:00:00,
2013-10-16 19:05:00,42.8,37.4,30.13,West,270,0.0,0.0,81,0.00,,,0.00,WUHU216HW,2013-10-17 00:05:00,
2013-10-16 19:10:00,42.8,37.4,30.13,West,270,0.0,0.0,81,0.00,,,0.00,WUHU216HW,2013-10-17 00:10:00,
2013-10-16 19:30:00,42.7,37.2,30.13,West,270,0.7,0.7,81,0.00,,,0.00,WUHU216HW,2013-10-17 00:30:00,
2013-10-16 19:35:00,42.7,37.2,30.13,West,270,0.7,0.7,81,0.00,,,0.00,WUHU216HW,2013-10-17 00:35:00,
2013-10-16 20:00:00,41.4,35.9,30.13,West,270,0.0,0.0,81,0.00,,,0.00,WUHU216HW,2013-10-17 01:00:00,
2013-10-16 20:05:00,41.4,35.9,30.13,West,270,0.0,0.0,81,0.00,,,0.00,WUHU216HW,2013-10-17 01:05:00,
2013-10-16 20:30:00,40.1,35.1,30.13,West,270,0.0,0.0,82,0.00,,,0.00,WUHU216HW,2013-10-17 01:30:00,
2013-10-16 20:35:00,40.1,35.1,30.13,West,270,0.0,0.0,82,0.00,,,0.00,WUHU216HW,2013-10-17 01:35:00,
2013-10-16 21:00:00,38.9,33.8,30.14,West,270,0.2,0.2,82,0.00,,,0.00,WUHU216HW,2013-10-17 02:00:00,
2013-10-16 21:05:00,38.9,33.8,30.14,West,270,0.2,0.2,82,0.00,,,0.00,WUHU216HW,2013-10-17 02:05:00,
2013-10-16 21:30:00,37.4,32.8,30.14,West,270,0.2,0.2,83,0.00,,,0.00,WUHU216HW,2013-10-17 02:30:00,
2013-10-16 21:35:00,37.4,32.8,30.14,West,270,0.2,0.2,83,0.00,,,0.00,WUHU216HW,2013-10-17 02:35:00,
2013-10-16 22:00:00,36.7,32.3,30.14,West,270,0.0,0.0,84,0.00,,,0.00,WUHU216HW,2013-10-17 03:00:00,
2013-10-16 22:05:00,36.7,32.3,30.14,West,270,0.0,0.0,84,0.00,,,0.00,WUHU216HW,2013-10-17 03:05:00,
2013-10-16 22:30:00,36.0,31.9,30.13,West,270,0.0,0.0,85,0.00,,,0.00,WUHU216HW,2013-10-17 03:30:00,
2013-10-16 22:35:00,36.0,31.9,30.13,West,270,0.0,0.0,85,0.00,,,0.00,WUHU216HW,2013-10-17 03:35:00,